CheckWX is a tool to help pilots better visualize weather data.  It is not intended as a substitute for an official pre-flight weather briefing.

12:39:53 UTC

KSLI METAR
Los Alamitos AAF Airport
Los Alamitos, California, USA
Current

42 mins ago

KSLI 201158Z AUTO 00000KT 10SM CLR 16/13 A2993 RMK AO2 SLP138 T01560134 10183 20153 53005
Observed
Aug-20 @ 11:58 UTC
Visibility
10 SM
Flight Rules
VFR
Cloud Levels
  • Clear skies
Temperature
16°C / 61°F
Dewpoint
13°C / 55°F
Humidity
83%
Altimeter
29.93" Hg
Pressure
1013.52 hPa
Previous

2 hours ago

KSLI 201058Z AUTO 00000KT 10SM CLR 16/14 A2992 RMK AO2 SLP135 T01600137
Observed
Aug-20 @ 10:58 UTC
Visibility
10 SM
Flight Rules
VFR
Cloud Levels
  • Clear skies
Temperature
16°C / 61°F
Dewpoint
14°C / 57°F
Humidity
88%
Altimeter
29.92" Hg
Pressure
1013.22 hPa
Previous

3 hours ago

KSLI 200958Z AUTO 00000KT 10SM CLR 16/13 A2991 RMK AO2 SLP131 T01580133
Observed
Aug-20 @ 09:58 UTC
Visibility
10 SM
Flight Rules
VFR
Cloud Levels
  • Clear skies
Temperature
16°C / 61°F
Dewpoint
13°C / 55°F
Humidity
83%
Altimeter
29.91" Hg
Pressure
1012.92 hPa